Time;durP1;ratioP1;P1;durP2;ratioP2;P2;SDS_P1;SDS_P2;PMS_P1;PMS_P2;Temp;Humidity;BMP_temperature;BMP_pressure;BME280_temperature;BME280_humidity;BME280_pressure;Samples;Min_cycle;Max_cycle;Signal;HPM_P1;HPM_P2
2023/03/25 00:05:44;;;;;;;;;;;;;;;;;;;;;
2023/03/25 00:08:53;;;;;;;;;;;;;;;;;;;;;
2023/03/25 00:12:07;;;;;;;;;;;;;;;;;;;;;
2023/03/25 00:15:09;;;;;;;2.77;1.27;;;9.90;1.00;;;;;;4914660;29;20594;-85
2023/03/25 00:22:04;;;;;;;;;;;;;;;;;;;;;
2023/03/25 00:28:32;;;;;;;5.40;1.60;;;10.00;99.90;;;;;;4910224;29;20461;-84
2023/03/25 00:31:43;;;;;;;;;;;;;;;;;;;;;
2023/03/25 00:37:58;;;;;;;3.27;0.93;;;10.10;99.90;;;;;;4869034;29;20604;-85
2023/03/25 01:47:39;;;;;;;;;;;;;;;;;;;;;
2023/03/25 02:02:32;;;;;;;;;;;;;;;;;;;;;
2023/03/25 06:20:33;;;;;;;7.20;1.80;;;9.60;1.00;;;;;;4913668;29;20441;-85
2023/03/25 06:23:48;;;;;;;10.00;2.10;;;9.50;1.00;;;;;;4890801;29;20473;-85
2023/03/25 06:26:41;;;;;;;12.13;1.80;;;9.50;1.00;;;;;;4876976;29;20462;-87
2023/03/25 06:29:14;;;;;;;6.23;1.90;;;9.50;99.90;;;;;;4902719;29;20805;-86
2023/03/25 06:32:25;;;;;;;;;;;;;;;;;;;;;
2023/03/25 06:35:18;;;;;;;9.55;2.38;;;9.40;1.00;;;;;;4904229;29;20550;-86
2023/03/25 06:38:00;;;;;;;8.88;2.00;;;9.40;1.00;;;;;;4920897;29;20182;-85
2023/03/25 06:40:49;;;;;;;;;;;;;;;;;;;;;
2023/03/25 07:12:03;;;;;;;6.60;1.87;;;12.20;99.90;;;;;;4731826;30;20486;-85
2023/03/25 07:18:55;;;;;;;7.47;2.07;;;11.50;99.90;;;;;;4724801;30;20515;-85
2023/03/25 07:33:22;;;;;;;6.80;2.00;;;11.00;1.00;;;;;;4829598;29;20534;-85
2023/03/25 07:36:45;;;;;;;;;;;;;;;;;;;;;
2023/03/25 07:58:54;;;;;;;9.27;2.40;;;19.30;99.90;;;;;;4898924;29;20454;-85
2023/03/25 08:01:40;;;;;;;12.87;2.20;;;17.50;99.90;;;;;;4904837;29;20439;-83
2023/03/25 08:04:16;;;;;;;7.30;2.10;;;16.30;99.90;;;;;;4878922;29;20462;-84
2023/03/25 08:07:04;;;;;;;12.77;2.90;;;15.30;99.90;;;;;;4871388;29;20425;-84
2023/03/25 08:09:35;;;;;;;7.50;2.30;;;14.40;99.90;;;;;;4864146;29;20449;-87
2023/03/25 08:15:03;;;;;;;5.17;1.60;;;13.50;99.90;;;;;;4926484;29;20572;-89
2023/03/25 08:17:41;;;;;;;;;;;;;;;;;;;;;
2023/03/25 08:20:41;;;;;;;13.00;2.57;;;14.80;99.90;;;;;;4928721;29;20505;-85
2023/03/25 08:26:37;;;;;;;9.27;2.30;;;16.10;99.90;;;;;;4923438;29;20434;-84
2023/03/25 08:29:34;;;;;;;10.90;2.40;;;15.30;99.90;;;;;;4917112;29;20513;-83
2023/03/25 08:35:31;;;;;;;;;;;;;;;;;;;;;
2023/03/25 08:38:34;;;;;;;12.93;2.43;;;14.50;99.90;;;;;;4935829;29;20504;-85
2023/03/25 08:41:50;;;;;;;9.33;2.83;;;14.60;99.90;;;;;;4880460;29;20460;-85
2023/03/25 08:45:09;;;;;;;10.50;2.10;;;15.70;99.90;;;;;;4923184;29;20487;-84
2023/03/25 08:54:53;;;;;;;10.60;2.73;;;23.60;99.90;;;;;;4877503;29;20474;-85
2023/03/25 09:00:53;;;;;;;8.40;2.47;;;24.80;99.90;;;;;;4853117;29;20503;-84
2023/03/25 09:03:28;;;;;;;7.90;2.07;;;22.60;99.90;;;;;;4904160;29;20449;-85
2023/03/25 09:05:53;;;;;;;9.17;2.10;;;21.10;99.90;;;;;;4902641;29;20822;-84
2023/03/25 09:08:45;;;;;;;8.00;2.40;;;21.50;99.90;;;;;;4905055;29;20448;-84
2023/03/25 09:11:22;;;;;;;7.30;2.10;;;21.70;99.90;;;;;;4890675;29;20464;-85
2023/03/25 09:14:07;;;;;;;6.43;2.47;;;23.10;99.90;;;;;;4928471;29;20893;-85
2023/03/25 09:16:40;;;;;;;8.13;2.40;;;25.60;99.90;;;;;;4901672;29;20454;-84
2023/03/25 09:22:24;;;;;;;11.50;2.53;;;23.40;99.90;;;;;;4925890;29;20589;-88
2023/03/25 09:25:10;;;;;;;6.67;1.80;;;21.70;99.90;;;;;;4911603;29;20461;-81
2023/03/25 09:27:53;;;;;;;11.53;2.30;;;20.40;99.90;;;;;;4915207;29;20458;-84
2023/03/25 09:30:18;;;;;;;14.80;2.37;;;19.60;99.90;;;;;;4930449;29;20430;-83
2023/03/25 09:32:54;;;;;;;9.83;2.33;;;19.90;99.90;;;;;;4910603;29;20953;-85
2023/03/25 09:35:22;;;;;;;9.70;2.53;;;20.70;99.90;;;;;;4910017;29;20245;-83
2023/03/25 09:37:48;;;;;;;11.00;2.23;;;19.90;99.90;;;;;;4916806;29;20666;-84
2023/03/25 09:40:20;;;;;;;9.17;2.30;;;21.00;99.90;;;;;;4900069;29;20457;-84
2023/03/25 09:43:13;;;;;;;7.70;2.20;;;22.60;99.90;;;;;;4927633;29;20220;-83
2023/03/25 09:45:48;;;;;;;7.93;2.90;;;22.50;99.90;;;;;;4903121;29;21018;-84
2023/03/25 09:48:39;;;;;;;6.40;1.90;;;21.20;99.90;;;;;;4915164;29;20469;-83
2023/03/25 09:51:34;;;;;;;10.10;2.47;;;20.10;99.90;;;;;;4910164;29;20492;-85
2023/03/25 09:54:31;;;;;;;11.90;2.63;;;19.30;99.90;;;;;;4914187;29;20457;-83
2023/03/25 09:57:06;;;;;;;10.47;2.67;;;18.90;99.90;;;;;;4915268;29;20435;-83
2023/03/25 09:59:55;;;;;;;9.80;1.97;;;18.30;99.90;;;;;;4902860;29;20530;-85
2023/03/25 10:02:40;;;;;;;11.57;2.60;;;19.10;99.90;;;;;;4902727;29;20598;-87
2023/03/25 10:05:30;;;;;;;6.53;1.73;;;19.60;99.90;;;;;;4919509;29;20476;-85
2023/03/25 10:08:06;;;;;;;12.77;2.47;;;19.50;99.90;;;;;;4908828;29;20443;-86
2023/03/25 10:10:36;;;;;;;8.53;2.60;;;21.00;99.90;;;;;;4920016;29;20445;-89
2023/03/25 10:14:08;;;;;;;9.70;2.27;;;23.40;99.90;;;;;;4904712;29;20474;-87
2023/03/25 10:16:46;;;;;;;8.90;2.57;;;23.50;99.90;;;;;;4835161;29;20539;-86
2023/03/25 10:19:20;;;;;;;8.63;2.40;;;22.20;99.90;;;;;;4841659;29;20919;-87
2023/03/25 10:22:08;;;;;;;8.20;2.47;;;21.00;99.90;;;;;;4893025;29;20534;-85
2023/03/25 10:24:54;;;;;;;9.93;2.73;;;19.70;99.90;;;;;;4900167;29;20504;-85
2023/03/25 10:27:34;;;;;;;9.53;2.93;;;18.70;99.90;;;;;;4926922;29;20440;-86
2023/03/25 10:30:26;;;;;;;9.83;2.33;;;18.00;99.90;;;;;;4917583;29;20436;-88
2023/03/25 10:33:04;;;;;;;7.80;2.03;;;17.60;99.90;;;;;;4909517;29;20464;-85
2023/03/25 10:35:41;;;;;;;10.63;2.30;;;17.10;99.90;;;;;;4928463;29;20882;-83
2023/03/25 10:38:33;;;;;;;7.03;2.20;;;16.90;99.90;;;;;;4907692;29;20551;-85
2023/03/25 10:41:31;;;;;;;8.73;2.13;;;16.80;99.90;;;;;;4927783;29;20447;-86
2023/03/25 10:44:00;;;;;;;6.83;2.40;;;16.70;99.90;;;;;;4927983;29;20504;-86
2023/03/25 10:46:50;;;;;;;3.80;1.73;;;18.40;99.90;;;;;;4936248;29;20931;-85
2023/03/25 10:49:36;;;;;;;7.00;2.57;;;20.50;99.90;;;;;;4907148;29;20443;-87
2023/03/25 10:52:11;;;;;;;7.23;2.10;;;22.20;99.90;;;;;;4913369;29;20537;-87
2023/03/25 10:54:55;;;;;;;;;;;;;;;;;;;;;
2023/03/25 10:57:36;;;;;;;5.13;2.03;;;22.50;99.90;;;;;;4932725;29;20506;-85
2023/03/25 11:00:25;;;;;;;9.50;1.83;;;23.70;99.90;;;;;;4913773;29;20820;-90
2023/03/25 11:03:03;;;;;;;9.97;2.10;;;23.00;99.90;;;;;;4932082;29;20945;-85
2023/03/25 11:05:45;;;;;;;7.70;1.90;;;22.80;99.90;;;;;;4911361;29;20437;-86
2023/03/25 11:08:38;;;;;;;4.73;1.20;;;23.20;99.90;;;;;;4940237;29;20500;-86
2023/03/25 11:11:15;;;;;;;3.63;1.53;;;23.10;99.90;;;;;;4931138;29;20450;-88
2023/03/25 11:13:43;;;;;;;5.40;1.67;;;24.00;99.90;;;;;;4930948;29;20520;-85
2023/03/25 11:16:15;;;;;;;6.40;2.00;;;24.10;99.90;;;;;;4928585;29;20478;-86
2023/03/25 11:18:56;;;;;;;6.80;2.37;;;24.60;99.90;;;;;;4923340;29;20437;-88
2023/03/25 11:21:36;;;;;;;6.40;2.17;;;24.70;99.90;;;;;;4928799;29;20492;-83
2023/03/25 11:24:15;;;;;;;;;;;;;;;;;;;;;
2023/03/25 11:26:57;;;;;;;10.07;2.27;;;23.90;99.90;;;;;;4921116;29;20531;-86
2023/03/25 11:29:26;;;;;;;8.60;2.07;;;22.60;99.90;;;;;;4933832;29;20450;-84
2023/03/25 11:32:03;;;;;;;9.23;2.50;;;21.60;99.90;;;;;;4910923;29;20500;-86
2023/03/25 11:34:30;;;;;;;11.07;2.70;;;20.70;99.90;;;;;;4934193;29;20477;-84
2023/03/25 11:37:08;;;;;;;8.80;2.23;;;19.60;99.90;;;;;;4931235;29;20445;-84
2023/03/25 11:39:41;;;;;;;7.37;2.07;;;18.60;99.90;;;;;;4921349;29;21002;-86
2023/03/25 11:42:18;;;;;;;11.10;2.60;;;18.20;99.90;;;;;;4919229;29;20459;-86
2023/03/25 11:44:58;;;;;;;11.67;3.00;;;18.00;99.90;;;;;;4916472;29;20441;-85
2023/03/25 11:47:32;;;;;;;6.50;2.40;;;17.10;99.90;;;;;;4915333;29;20489;-85
2023/03/25 11:50:02;;;;;;;9.13;3.20;;;16.30;99.90;;;;;;4932298;29;20458;-84
2023/03/25 11:53:01;;;;;;;16.63;3.20;;;15.70;99.90;;;;;;4939900;29;20544;-84
2023/03/25 11:55:38;;;;;;;8.93;3.00;;;15.00;99.90;;;;;;4910387;29;20512;-87
2023/03/25 11:58:03;;;;;;;6.00;2.83;;;14.40;99.90;;;;;;4914523;29;20445;-85
2023/03/25 12:00:45;;;;;;;17.07;3.60;;;14.00;99.90;;;;;;4933667;29;20510;-88
2023/03/25 12:03:11;;;;;;;9.90;2.90;;;13.70;99.90;;;;;;4935482;29;20214;-88
2023/03/25 12:05:50;;;;;;;11.87;2.93;;;13.60;99.90;;;;;;4922776;29;20435;-86
2023/03/25 12:08:21;;;;;;;6.90;3.57;;;13.80;99.90;;;;;;4941142;29;20251;-87
2023/03/25 12:11:16;;;;;;;10.27;2.80;;;14.30;99.90;;;;;;4922324;29;20475;-86
2023/03/25 12:14:11;;;;;;;11.40;3.07;;;15.40;99.90;;;;;;4911197;29;20480;-88
2023/03/25 12:17:00;;;;;;;6.63;2.47;;;17.00;99.90;;;;;;4916308;29;20441;-87
2023/03/25 12:19:45;;;;;;;10.20;2.50;;;17.60;99.90;;;;;;4914255;29;20449;-86
2023/03/25 12:22:39;;;;;;;;;;;;;;;;;;;;;
2023/03/25 12:25:30;;;;;;;14.33;2.50;;;17.20;99.90;;;;;;4936525;29;20994;-87
2023/03/25 12:28:22;;;;;;;25.90;3.43;;;16.40;99.90;;;;;;4926220;29;20979;-86
2023/03/25 12:31:25;;;;;;;6.23;1.80;;;15.70;99.90;;;;;;4923979;29;20458;-86
2023/03/25 12:34:35;;;;;;;11.40;2.47;;;15.10;99.90;;;;;;4916508;29;20496;-86
2023/03/25 12:37:13;;;;;;;10.17;2.20;;;15.20;99.90;;;;;;4893246;29;20450;-85
2023/03/25 12:40:01;;;;;;;16.17;2.50;;;15.30;99.90;;;;;;4922198;29;20437;-85
2023/03/25 12:46:06;;;;;;;5.87;2.23;;;14.90;99.90;;;;;;4920942;29;20445;-86
2023/03/25 12:49:00;;;;;;;9.97;2.47;;;14.70;99.90;;;;;;4928373;29;20424;-85
2023/03/25 12:51:46;;;;;;;11.43;2.70;;;14.40;99.90;;;;;;4935403;29;20502;-87
2023/03/25 12:54:40;;;;;;;9.57;2.10;;;14.10;99.90;;;;;;4914537;29;20442;-85
2023/03/25 12:57:42;;;;;;;7.70;2.07;;;13.90;99.90;;;;;;4926121;29;20430;-87
2023/03/25 13:00:25;;;;;;;11.60;2.67;;;13.80;99.90;;;;;;4909597;29;20919;-85
2023/03/25 13:03:11;;;;;;;9.90;2.70;;;13.70;99.90;;;;;;4912097;29;20459;-87
2023/03/25 13:05:52;;;;;;;11.73;2.17;;;13.50;99.90;;;;;;4916709;29;20528;-84
2023/03/25 13:08:23;;;;;;;7.73;2.23;;;13.20;99.90;;;;;;4912100;29;20518;-86
2023/03/25 13:11:18;;;;;;;6.03;2.27;;;12.80;99.90;;;;;;4907626;29;20470;-86
2023/03/25 13:14:11;;;;;;;10.07;1.77;;;12.30;1.00;;;;;;4897233;29;20471;-85
2023/03/25 13:16:57;;;;;;;6.53;2.10;;;12.10;99.90;;;;;;4922714;29;20454;-85
2023/03/25 13:19:43;;;;;;;6.80;1.63;;;12.00;1.00;;;;;;4911919;29;20432;-85
2023/03/25 13:23:02;;;;;;;5.03;1.87;;;11.90;1.00;;;;;;4911939;29;20455;-86
2023/03/25 13:25:57;;;;;;;5.83;1.80;;;11.70;63.10;;;;;;4924298;29;20480;-88
2023/03/25 13:28:37;;;;;;;4.67;2.20;;;11.50;1.00;;;;;;4903848;29;20439;-85
2023/03/25 13:31:13;;;;;;;7.40;1.67;;;11.40;99.90;;;;;;4925401;29;20437;-86
2023/03/25 13:34:01;;;;;;;9.07;2.27;;;11.60;1.00;;;;;;4933938;29;20468;-87
2023/03/25 13:36:36;;;;;;;8.40;1.90;;;11.90;99.90;;;;;;4929155;29;20465;-87
2023/03/25 13:39:27;;;;;;;7.63;1.80;;;12.20;1.00;;;;;;4911744;29;20438;-86
2023/03/25 13:42:54;;;;;;;6.50;2.10;;;12.70;1.00;;;;;;4917302;29;20459;-86
2023/03/25 13:46:06;;;;;;;8.40;1.67;;;13.30;1.00;;;;;;4833504;29;21032;-86
2023/03/25 13:52:32;;;;;;;4.53;1.40;;;13.10;48.90;;;;;;4845118;29;20454;-85
2023/03/25 13:58:58;;;;;;;6.37;1.77;;;13.30;1.00;;;;;;4862943;29;20473;-84
2023/03/25 14:05:27;;;;;;;6.70;2.60;;;14.50;1.00;;;;;;4898249;29;20450;-85
2023/03/25 14:08:50;;;;;;;7.20;2.27;;;15.10;1.00;;;;;;4905946;29;20542;-86
2023/03/25 14:11:48;;;;;;;14.20;2.30;;;15.90;99.90;;;;;;4899696;29;20433;-85
2023/03/25 14:14:20;;;;;;;9.63;2.10;;;16.40;99.90;;;;;;4927814;29;20432;-86
2023/03/25 14:17:07;;;;;;;8.03;1.73;;;16.60;99.90;;;;;;4926629;29;20448;-86
2023/03/25 14:19:54;;;;;;;7.60;1.90;;;16.60;99.90;;;;;;4918999;29;20504;-86
2023/03/25 14:22:28;;;;;;;8.47;3.13;;;16.80;99.90;;;;;;4928834;29;21103;-85
2023/03/25 14:25:13;;;;;;;7.03;2.10;;;17.10;99.90;;;;;;4923194;29;20792;-85
2023/03/25 14:32:15;;;;;;;;;;;;;;;;;;;;;
2023/03/25 14:42:25;;;;;;;6.00;2.40;;;15.80;99.90;;;;;;4852476;29;20438;-86
2023/03/25 14:44:55;;;;;;;8.30;1.90;;;15.30;99.90;;;;;;4856760;29;20603;-84
2023/03/25 14:47:31;;;;;;;8.27;1.93;;;14.90;99.90;;;;;;4837017;29;20457;-84
2023/03/25 14:50:19;;;;;;;9.37;2.60;;;14.40;99.90;;;;;;4928495;29;20548;-85
2023/03/25 14:52:50;;;;;;;7.13;1.90;;;14.00;99.90;;;;;;4923739;29;20559;-84
2023/03/25 14:55:26;;;;;;;8.53;1.80;;;13.60;99.90;;;;;;4928524;29;20502;-85
2023/03/25 14:58:01;;;;;;;9.47;2.10;;;13.30;99.90;;;;;;4901900;29;20449;-84
2023/03/25 15:00:41;;;;;;;6.93;1.60;;;13.20;99.90;;;;;;4923810;29;20450;-83
2023/03/25 15:03:16;;;;;;;14.67;2.03;;;13.20;1.00;;;;;;4927658;29;20497;-84
2023/03/25 15:05:42;;;;;;;5.00;3.23;;;13.20;1.00;;;;;;4905354;29;20825;-85
2023/03/25 15:08:11;;;;;;;7.20;1.57;;;13.20;1.00;;;;;;4921285;29;20470;-82
2023/03/25 15:14:23;;;;;;;6.57;1.80;;;13.10;1.00;;;;;;4909043;29;20854;-84
2023/03/25 15:16:52;;;;;;;7.67;1.97;;;13.30;1.00;;;;;;4910893;29;20518;-83
2023/03/25 15:19:30;;;;;;;;;;;;;;;;;;;;;
2023/03/25 15:22:09;;;;;;;7.60;1.80;;;13.40;1.00;;;;;;4928753;29;20477;-82
2023/03/25 15:25:00;;;;;;;7.27;2.03;;;13.40;1.00;;;;;;4911545;29;20446;-82
2023/03/25 15:27:38;;;;;;;10.73;2.10;;;13.30;1.00;;;;;;4933879;29;20445;-80
2023/03/25 15:30:29;;;;;;;9.13;2.10;;;13.20;1.00;;;;;;4921869;29;20471;-86
2023/03/25 15:33:00;;;;;;;10.27;1.90;;;13.20;1.00;;;;;;4910012;29;20462;-82
2023/03/25 15:35:42;;;;;;;5.43;1.47;;;13.20;1.00;;;;;;4909824;29;20472;-85
2023/03/25 15:38:48;;;;;;;5.40;1.50;;;13.10;1.00;;;;;;4930724;29;20576;-83
2023/03/25 15:41:55;;;;;;;4.03;1.40;;;13.00;1.00;;;;;;4904042;29;20486;-83
2023/03/25 15:44:54;;;;;;;8.23;1.53;;;12.90;1.00;;;;;;4913782;29;20442;-83
2023/03/25 15:47:28;;;;;;;7.13;2.30;;;13.00;1.00;;;;;;4906135;29;20454;-85
2023/03/25 15:50:02;;;;;;;6.90;1.83;;;13.20;1.00;;;;;;4933478;29;20446;-85
2023/03/25 15:52:36;;;;;;;5.80;1.53;;;13.50;1.00;;;;;;4920233;29;20994;-84
2023/03/25 15:55:37;;;;;;;;;;;;;;;;;;;;;
2023/03/25 15:58:10;;;;;;;4.10;2.10;;;13.60;1.00;;;;;;4933145;29;20469;-81
2023/03/25 16:01:29;;;;;;;7.67;2.00;;;13.60;1.00;;;;;;4923543;29;20446;-83
2023/03/25 16:04:19;;;;;;;10.97;1.93;;;13.50;1.00;;;;;;4923824;29;20491;-82
2023/03/25 16:07:00;;;;;;;12.07;2.60;;;13.40;1.00;;;;;;4904781;29;20474;-84
2023/03/25 16:09:46;;;;;;;5.20;1.60;;;13.30;1.00;;;;;;4930522;29;20429;-82
2023/03/25 16:12:21;;;;;;;6.63;1.70;;;13.20;1.00;;;;;;4931078;29;20565;-85
2023/03/25 16:15:07;;;;;;;9.10;3.10;;;13.10;1.00;;;;;;4929927;29;20474;-83
2023/03/25 16:17:50;;;;;;;6.33;1.67;;;13.00;1.00;;;;;;4933101;29;20445;-84
2023/03/25 16:20:26;;;;;;;7.13;2.00;;;12.90;1.00;;;;;;4913902;29;20438;-86
2023/03/25 16:22:58;;;;;;;5.70;2.00;;;12.80;1.00;;;;;;4935821;29;20482;-83
2023/03/25 16:25:36;;;;;;;5.87;2.43;;;12.70;1.00;;;;;;4914223;29;20462;-83
2023/03/25 16:28:13;;;;;;;9.20;2.60;;;12.70;1.00;;;;;;4934588;29;20462;-84
2023/03/25 16:30:47;;;;;;;12.80;2.70;;;12.50;45.30;;;;;;4929743;29;20455;-83
2023/03/25 16:33:27;;;;;;;9.67;2.53;;;12.50;99.90;;;;;;4946485;29;20457;-83
2023/03/25 16:36:02;;;;;;;15.00;6.60;;;12.40;99.90;;;;;;4914068;29;20473;-84
2023/03/25 16:38:32;;;;;;;10.80;6.70;;;12.30;99.90;;;;;;4925919;29;20437;-83
2023/03/25 16:41:06;;;;;;;10.17;6.30;;;12.30;99.90;;;;;;4913221;29;20439;-85
2023/03/25 16:43:32;;;;;;;3.70;1.37;;;12.50;99.90;;;;;;4927869;29;21023;-84
2023/03/25 16:46:00;;;;;;;6.93;1.50;;;12.60;1.00;;;;;;4928785;29;20948;-83
2023/03/25 16:48:28;;;;;;;3.30;1.63;;;12.70;1.00;;;;;;4935180;29;20497;-84
2023/03/25 16:51:09;;;;;;;;;;;;;;;;;;;;;
2023/03/25 16:53:39;;;;;;;3.67;1.50;;;12.40;1.00;;;;;;4919930;29;20682;-85
2023/03/25 16:56:08;;;;;;;5.80;1.60;;;12.30;1.00;;;;;;4914574;29;20461;-83
2023/03/25 16:58:36;;;;;;;5.10;1.50;;;12.20;1.00;;;;;;4926437;29;20886;-86
2023/03/25 17:01:24;;;;;;;;;;;;;;;;;;;;;
2023/03/25 17:04:11;;;;;;;7.18;1.80;;;11.90;99.90;;;;;;4932335;29;20996;-82
2023/03/25 17:06:52;;;;;;;4.87;2.13;;;11.90;99.90;;;;;;4915289;29;20258;-83
2023/03/25 17:09:24;;;;;;;6.90;1.80;;;11.90;99.90;;;;;;4915467;29;20553;-83
2023/03/25 17:11:55;;;;;;;9.67;2.30;;;11.80;99.90;;;;;;4927891;29;20589;-85
2023/03/25 17:14:27;;;;;;;6.67;2.00;;;11.70;99.90;;;;;;4930338;29;20454;-83
2023/03/25 17:16:53;;;;;;;5.67;2.10;;;11.60;1.00;;;;;;4928974;29;20442;-85
2023/03/25 17:19:27;;;;;;;7.07;1.83;;;11.60;1.00;;;;;;4917936;29;20444;-83
2023/03/25 17:22:30;;;;;;;9.80;2.17;;;11.60;1.00;;;;;;4934734;29;20493;-84
2023/03/25 17:24:58;;;;;;;11.87;2.40;;;11.60;1.00;;;;;;4875236;29;20466;-83
2023/03/25 17:27:35;;;;;;;9.40;2.67;;;11.60;1.00;;;;;;4917598;29;20441;-84
2023/03/25 17:30:41;;;;;;;3.97;1.73;;;11.50;99.90;;;;;;4918096;29;20438;-85
2023/03/25 17:33:42;;;;;;;3.70;1.40;;;11.20;1.00;;;;;;4901512;29;20470;-85
2023/03/25 17:43:51;;;;;;;;;;;;;;;;;;;;;
2023/03/25 17:46:30;;;;;;;;;;;;;;;;;;;;;
2023/03/25 17:49:25;;;;;;;5.70;1.50;;;9.60;99.90;;;;;;4866798;29;20512;-85
2023/03/25 17:52:19;;;;;;;1.80;1.20;;;9.60;1.00;;;;;;4892929;29;20470;-85
2023/03/25 17:55:23;;;;;;;;;;;;;;;;;;;;;
2023/03/25 17:58:37;;;;;;;;;;;;;;;;;;;;;
2023/03/25 18:01:39;;;;;;;7.85;2.35;;;9.50;99.90;;;;;;4890389;29;20525;-85
2023/03/25 18:05:05;;;;;;;6.90;2.00;;;9.60;1.00;;;;;;4908590;29;20273;-83
2023/03/25 18:07:49;;;;;;;6.10;3.37;;;9.60;1.00;;;;;;4879783;29;20449;-86
